sensor_id;sensor_type;location;lat;lon;timestamp;P1;durP1;ratioP1;P2;durP2;ratioP2
69594;SDS011;56800;52.142;5.364;2023-07-24T00:00:03;8.13;;;4.65;;
69594;SDS011;56800;52.142;5.364;2023-07-24T00:02:31;7.60;;;4.53;;
69594;SDS011;56800;52.142;5.364;2023-07-24T00:04:58;4.97;;;3.97;;
69594;SDS011;56800;52.142;5.364;2023-07-24T00:07:25;5.82;;;3.80;;
69594;SDS011;56800;52.142;5.364;2023-07-24T00:09:51;9.00;;;4.37;;
69594;SDS011;56800;52.142;5.364;2023-07-24T00:12:18;7.55;;;4.30;;
69594;SDS011;56800;52.142;5.364;2023-07-24T00:14:45;5.97;;;4.28;;
69594;SDS011;56800;52.142;5.364;2023-07-24T00:17:12;5.75;;;4.00;;
69594;SDS011;56800;52.142;5.364;2023-07-24T00:19:38;5.68;;;4.20;;
69594;SDS011;56800;52.142;5.364;2023-07-24T00:22:05;5.27;;;3.83;;
69594;SDS011;56800;52.142;5.364;2023-07-24T00:24:32;6.53;;;3.88;;
69594;SDS011;56800;52.142;5.364;2023-07-24T00:26:59;7.95;;;4.68;;
69594;SDS011;56800;52.142;5.364;2023-07-24T00:29:26;6.95;;;4.38;;
69594;SDS011;56800;52.142;5.364;2023-07-24T00:31:52;5.85;;;4.53;;
69594;SDS011;56800;52.142;5.364;2023-07-24T00:34:19;5.93;;;3.97;;
69594;SDS011;56800;52.142;5.364;2023-07-24T00:36:46;5.28;;;4.07;;
69594;SDS011;56800;52.142;5.364;2023-07-24T00:39:16;5.65;;;4.05;;
69594;SDS011;56800;52.142;5.364;2023-07-24T00:41:43;5.43;;;3.88;;
69594;SDS011;56800;52.142;5.364;2023-07-24T00:44:10;5.70;;;4.05;;
69594;SDS011;56800;52.142;5.364;2023-07-24T00:46:36;8.83;;;4.30;;
69594;SDS011;56800;52.142;5.364;2023-07-24T00:49:04;5.93;;;4.57;;
69594;SDS011;56800;52.142;5.364;2023-07-24T00:51:31;6.63;;;4.38;;
69594;SDS011;56800;52.142;5.364;2023-07-24T00:54:00;5.78;;;4.05;;
69594;SDS011;56800;52.142;5.364;2023-07-24T00:56:28;6.22;;;4.45;;
69594;SDS011;56800;52.142;5.364;2023-07-24T00:58:56;5.67;;;4.47;;
69594;SDS011;56800;52.142;5.364;2023-07-24T01:01:24;6.63;;;4.30;;
69594;SDS011;56800;52.142;5.364;2023-07-24T01:03:52;6.57;;;4.70;;
69594;SDS011;56800;52.142;5.364;2023-07-24T01:06:18;6.60;;;4.30;;
69594;SDS011;56800;52.142;5.364;2023-07-24T01:08:45;5.88;;;4.30;;
69594;SDS011;56800;52.142;5.364;2023-07-24T01:11:16;6.13;;;4.33;;
69594;SDS011;56800;52.142;5.364;2023-07-24T01:13:54;6.43;;;3.83;;
69594;SDS011;56800;52.142;5.364;2023-07-24T01:16:36;5.97;;;3.80;;
69594;SDS011;56800;52.142;5.364;2023-07-24T01:19:06;5.15;;;3.75;;
69594;SDS011;56800;52.142;5.364;2023-07-24T01:27:57;5.80;;;4.18;;
69594;SDS011;56800;52.142;5.364;2023-07-24T01:30:24;5.82;;;4.80;;
69594;SDS011;56800;52.142;5.364;2023-07-24T01:32:51;6.65;;;3.70;;
69594;SDS011;56800;52.142;5.364;2023-07-24T01:35:18;5.88;;;4.15;;
69594;SDS011;56800;52.142;5.364;2023-07-24T01:37:45;5.30;;;4.10;;
69594;SDS011;56800;52.142;5.364;2023-07-24T01:40:13;5.60;;;4.03;;
69594;SDS011;56800;52.142;5.364;2023-07-24T01:42:40;5.57;;;4.45;;
69594;SDS011;56800;52.142;5.364;2023-07-24T01:45:08;6.40;;;4.57;;
69594;SDS011;56800;52.142;5.364;2023-07-24T01:47:35;5.18;;;4.18;;
69594;SDS011;56800;52.142;5.364;2023-07-24T01:50:02;5.00;;;4.27;;
69594;SDS011;56800;52.142;5.364;2023-07-24T01:52:28;6.03;;;4.05;;
69594;SDS011;56800;52.142;5.364;2023-07-24T01:54:55;5.40;;;3.75;;
69594;SDS011;56800;52.142;5.364;2023-07-24T01:57:22;6.93;;;4.40;;
69594;SDS011;56800;52.142;5.364;2023-07-24T01:59:48;6.45;;;3.85;;
69594;SDS011;56800;52.142;5.364;2023-07-24T02:02:15;6.87;;;4.23;;
69594;SDS011;56800;52.142;5.364;2023-07-24T02:04:42;5.68;;;4.07;;
69594;SDS011;56800;52.142;5.364;2023-07-24T02:07:09;6.07;;;4.18;;
69594;SDS011;56800;52.142;5.364;2023-07-24T02:09:35;6.15;;;3.92;;
69594;SDS011;56800;52.142;5.364;2023-07-24T02:12:02;7.47;;;3.90;;
69594;SDS011;56800;52.142;5.364;2023-07-24T02:14:29;5.93;;;4.13;;
69594;SDS011;56800;52.142;5.364;2023-07-24T02:16:56;5.30;;;4.20;;
69594;SDS011;56800;52.142;5.364;2023-07-24T02:19:22;5.60;;;4.20;;
69594;SDS011;56800;52.142;5.364;2023-07-24T02:21:49;8.30;;;4.57;;
69594;SDS011;56800;52.142;5.364;2023-07-24T02:24:16;5.68;;;3.85;;
69594;SDS011;56800;52.142;5.364;2023-07-24T02:26:43;5.67;;;4.40;;
69594;SDS011;56800;52.142;5.364;2023-07-24T02:29:09;6.90;;;4.88;;
69594;SDS011;56800;52.142;5.364;2023-07-24T02:31:36;6.70;;;4.78;;
69594;SDS011;56800;52.142;5.364;2023-07-24T02:34:03;5.88;;;4.53;;
69594;SDS011;56800;52.142;5.364;2023-07-24T02:36:29;7.05;;;4.63;;
69594;SDS011;56800;52.142;5.364;2023-07-24T02:38:57;7.90;;;4.90;;
69594;SDS011;56800;52.142;5.364;2023-07-24T02:41:23;5.88;;;4.82;;
69594;SDS011;56800;52.142;5.364;2023-07-24T02:43:50;7.70;;;4.68;;
69594;SDS011;56800;52.142;5.364;2023-07-24T02:46:17;11.75;;;4.50;;
69594;SDS011;56800;52.142;5.364;2023-07-24T02:48:44;6.43;;;4.40;;
69594;SDS011;56800;52.142;5.364;2023-07-24T02:51:10;5.73;;;4.30;;
69594;SDS011;56800;52.142;5.364;2023-07-24T02:53:37;9.90;;;4.55;;
69594;SDS011;56800;52.142;5.364;2023-07-24T02:56:04;7.22;;;5.05;;
69594;SDS011;56800;52.142;5.364;2023-07-24T02:58:30;5.45;;;4.40;;
69594;SDS011;56800;52.142;5.364;2023-07-24T03:01:15;7.28;;;4.60;;
69594;SDS011;56800;52.142;5.364;2023-07-24T03:03:42;7.70;;;4.50;;
69594;SDS011;56800;52.142;5.364;2023-07-24T03:06:09;5.88;;;4.72;;
69594;SDS011;56800;52.142;5.364;2023-07-24T03:08:35;7.22;;;5.35;;
69594;SDS011;56800;52.142;5.364;2023-07-24T03:11:04;7.22;;;5.18;;
69594;SDS011;56800;52.142;5.364;2023-07-24T03:13:31;7.53;;;4.93;;
69594;SDS011;56800;52.142;5.364;2023-07-24T03:15:58;8.03;;;5.37;;
69594;SDS011;56800;52.142;5.364;2023-07-24T03:18:25;8.32;;;5.45;;
69594;SDS011;56800;52.142;5.364;2023-07-24T03:20:52;6.55;;;4.95;;
69594;SDS011;56800;52.142;5.364;2023-07-24T03:23:19;7.03;;;4.90;;
69594;SDS011;56800;52.142;5.364;2023-07-24T03:25:46;7.00;;;5.13;;
69594;SDS011;56800;52.142;5.364;2023-07-24T03:28:13;6.70;;;4.90;;
69594;SDS011;56800;52.142;5.364;2023-07-24T03:30:40;6.30;;;5.38;;
69594;SDS011;56800;52.142;5.364;2023-07-24T03:33:06;7.28;;;4.85;;
69594;SDS011;56800;52.142;5.364;2023-07-24T03:35:34;9.30;;;5.75;;
69594;SDS011;56800;52.142;5.364;2023-07-24T03:38:00;7.45;;;5.38;;
69594;SDS011;56800;52.142;5.364;2023-07-24T03:40:27;6.93;;;4.57;;
69594;SDS011;56800;52.142;5.364;2023-07-24T03:42:54;7.95;;;5.43;;
69594;SDS011;56800;52.142;5.364;2023-07-24T03:45:21;7.05;;;5.20;;
69594;SDS011;56800;52.142;5.364;2023-07-24T03:47:47;10.02;;;5.47;;
69594;SDS011;56800;52.142;5.364;2023-07-24T03:50:14;7.82;;;5.18;;
69594;SDS011;56800;52.142;5.364;2023-07-24T03:52:42;8.60;;;6.00;;
69594;SDS011;56800;52.142;5.364;2023-07-24T03:55:09;7.63;;;5.22;;
69594;SDS011;56800;52.142;5.364;2023-07-24T03:57:36;8.48;;;5.43;;
69594;SDS011;56800;52.142;5.364;2023-07-24T04:00:03;8.30;;;6.63;;
69594;SDS011;56800;52.142;5.364;2023-07-24T04:02:30;9.57;;;6.20;;
69594;SDS011;56800;52.142;5.364;2023-07-24T04:04:57;8.43;;;6.60;;
69594;SDS011;56800;52.142;5.364;2023-07-24T04:07:24;7.28;;;6.28;;
69594;SDS011;56800;52.142;5.364;2023-07-24T04:09:51;9.68;;;6.07;;
69594;SDS011;56800;52.142;5.364;2023-07-24T04:12:17;9.60;;;6.03;;
69594;SDS011;56800;52.142;5.364;2023-07-24T04:14:44;9.57;;;6.55;;
69594;SDS011;56800;52.142;5.364;2023-07-24T04:17:11;8.07;;;6.17;;
69594;SDS011;56800;52.142;5.364;2023-07-24T04:19:37;8.77;;;6.13;;
69594;SDS011;56800;52.142;5.364;2023-07-24T04:22:04;8.30;;;5.90;;
69594;SDS011;56800;52.142;5.364;2023-07-24T04:24:31;8.48;;;5.50;;
69594;SDS011;56800;52.142;5.364;2023-07-24T04:26:58;8.55;;;5.97;;
69594;SDS011;56800;52.142;5.364;2023-07-24T04:29:24;9.70;;;6.07;;
69594;SDS011;56800;52.142;5.364;2023-07-24T04:31:52;9.43;;;6.57;;
69594;SDS011;56800;52.142;5.364;2023-07-24T04:34:19;9.75;;;6.20;;
69594;SDS011;56800;52.142;5.364;2023-07-24T04:36:45;10.20;;;6.75;;
69594;SDS011;56800;52.142;5.364;2023-07-24T04:39:12;9.07;;;6.40;;
69594;SDS011;56800;52.142;5.364;2023-07-24T04:41:39;10.47;;;6.37;;
69594;SDS011;56800;52.142;5.364;2023-07-24T04:44:05;9.70;;;6.65;;
69594;SDS011;56800;52.142;5.364;2023-07-24T04:46:32;9.13;;;6.50;;
69594;SDS011;56800;52.142;5.364;2023-07-24T04:49:00;9.50;;;6.68;;
69594;SDS011;56800;52.142;5.364;2023-07-24T04:51:26;9.90;;;6.60;;
69594;SDS011;56800;52.142;5.364;2023-07-24T04:53:53;11.03;;;6.93;;
69594;SDS011;56800;52.142;5.364;2023-07-24T04:56:20;10.25;;;6.40;;
69594;SDS011;56800;52.142;5.364;2023-07-24T04:58:47;10.63;;;6.70;;
69594;SDS011;56800;52.142;5.364;2023-07-24T05:01:13;10.02;;;6.90;;
69594;SDS011;56800;52.142;5.364;2023-07-24T05:03:40;9.60;;;6.85;;
69594;SDS011;56800;52.142;5.364;2023-07-24T05:06:07;9.60;;;6.90;;
69594;SDS011;56800;52.142;5.364;2023-07-24T05:08:33;10.85;;;6.72;;
69594;SDS011;56800;52.142;5.364;2023-07-24T05:11:00;10.10;;;7.13;;
69594;SDS011;56800;52.142;5.364;2023-07-24T05:13:27;9.38;;;6.43;;
69594;SDS011;56800;52.142;5.364;2023-07-24T05:15:54;11.38;;;7.00;;
69594;SDS011;56800;52.142;5.364;2023-07-24T05:18:20;14.47;;;7.03;;
69594;SDS011;56800;52.142;5.364;2023-07-24T05:20:47;10.77;;;6.82;;
69594;SDS011;56800;52.142;5.364;2023-07-24T05:23:17;10.25;;;7.10;;
69594;SDS011;56800;52.142;5.364;2023-07-24T05:25:44;13.43;;;7.15;;
69594;SDS011;56800;52.142;5.364;2023-07-24T05:28:10;13.55;;;7.13;;
69594;SDS011;56800;52.142;5.364;2023-07-24T05:30:37;10.77;;;6.90;;
69594;SDS011;56800;52.142;5.364;2023-07-24T05:33:04;11.23;;;7.30;;
69594;SDS011;56800;52.142;5.364;2023-07-24T05:35:31;10.43;;;6.97;;
69594;SDS011;56800;52.142;5.364;2023-07-24T05:37:58;11.80;;;6.78;;
69594;SDS011;56800;52.142;5.364;2023-07-24T05:40:24;11.40;;;7.05;;
69594;SDS011;56800;52.142;5.364;2023-07-24T05:42:51;9.93;;;5.97;;
69594;SDS011;56800;52.142;5.364;2023-07-24T05:45:18;11.75;;;7.03;;
69594;SDS011;56800;52.142;5.364;2023-07-24T05:47:44;12.25;;;6.80;;
69594;SDS011;56800;52.142;5.364;2023-07-24T05:50:11;13.50;;;6.45;;
69594;SDS011;56800;52.142;5.364;2023-07-24T05:52:40;13.80;;;6.85;;
69594;SDS011;56800;52.142;5.364;2023-07-24T05:55:07;10.70;;;6.73;;
69594;SDS011;56800;52.142;5.364;2023-07-24T05:57:34;14.40;;;6.82;;
69594;SDS011;56800;52.142;5.364;2023-07-24T06:00:02;12.68;;;6.60;;
69594;SDS011;56800;52.142;5.364;2023-07-24T06:02:30;10.35;;;6.78;;
69594;SDS011;56800;52.142;5.364;2023-07-24T06:04:57;11.13;;;6.07;;
69594;SDS011;56800;52.142;5.364;2023-07-24T06:07:23;10.83;;;5.93;;
69594;SDS011;56800;52.142;5.364;2023-07-24T06:09:50;9.65;;;5.65;;
69594;SDS011;56800;52.142;5.364;2023-07-24T06:12:17;11.18;;;5.80;;
69594;SDS011;56800;52.142;5.364;2023-07-24T06:14:44;11.30;;;6.25;;
69594;SDS011;56800;52.142;5.364;2023-07-24T06:17:11;8.35;;;6.03;;
69594;SDS011;56800;52.142;5.364;2023-07-24T06:19:38;9.97;;;6.00;;
69594;SDS011;56800;52.142;5.364;2023-07-24T06:22:04;9.68;;;5.80;;
69594;SDS011;56800;52.142;5.364;2023-07-24T06:24:31;11.43;;;6.47;;
69594;SDS011;56800;52.142;5.364;2023-07-24T06:26:58;10.90;;;5.70;;
69594;SDS011;56800;52.142;5.364;2023-07-24T06:29:25;9.32;;;5.88;;
69594;SDS011;56800;52.142;5.364;2023-07-24T06:31:52;11.37;;;6.27;;
69594;SDS011;56800;52.142;5.364;2023-07-24T06:34:18;11.25;;;6.38;;
69594;SDS011;56800;52.142;5.364;2023-07-24T06:36:45;13.75;;;5.72;;
69594;SDS011;56800;52.142;5.364;2023-07-24T06:39:12;11.60;;;5.75;;
69594;SDS011;56800;52.142;5.364;2023-07-24T06:41:39;12.55;;;5.63;;
69594;SDS011;56800;52.142;5.364;2023-07-24T06:44:05;11.87;;;6.50;;
69594;SDS011;56800;52.142;5.364;2023-07-24T06:46:32;13.90;;;6.18;;
69594;SDS011;56800;52.142;5.364;2023-07-24T06:48:59;11.00;;;6.03;;
69594;SDS011;56800;52.142;5.364;2023-07-24T06:51:25;11.93;;;5.60;;
69594;SDS011;56800;52.142;5.364;2023-07-24T06:53:52;12.85;;;5.82;;
69594;SDS011;56800;52.142;5.364;2023-07-24T06:56:19;10.77;;;5.60;;
69594;SDS011;56800;52.142;5.364;2023-07-24T06:58:45;13.82;;;5.53;;
69594;SDS011;56800;52.142;5.364;2023-07-24T07:01:12;11.68;;;5.32;;
69594;SDS011;56800;52.142;5.364;2023-07-24T07:03:39;11.13;;;5.05;;
69594;SDS011;56800;52.142;5.364;2023-07-24T07:06:06;8.25;;;5.35;;
69594;SDS011;56800;52.142;5.364;2023-07-24T07:08:33;10.23;;;5.33;;
69594;SDS011;56800;52.142;5.364;2023-07-24T07:11:00;13.40;;;5.70;;
69594;SDS011;56800;52.142;5.364;2023-07-24T07:13:27;10.65;;;5.70;;
69594;SDS011;56800;52.142;5.364;2023-07-24T07:15:54;14.05;;;5.85;;
69594;SDS011;56800;52.142;5.364;2023-07-24T07:18:21;11.63;;;5.40;;
69594;SDS011;56800;52.142;5.364;2023-07-24T07:20:48;13.10;;;5.87;;
69594;SDS011;56800;52.142;5.364;2023-07-24T07:23:18;12.40;;;5.90;;
69594;SDS011;56800;52.142;5.364;2023-07-24T07:25:45;11.25;;;4.97;;
69594;SDS011;56800;52.142;5.364;2023-07-24T07:28:15;14.10;;;5.28;;
69594;SDS011;56800;52.142;5.364;2023-07-24T07:30:42;13.18;;;5.30;;
69594;SDS011;56800;52.142;5.364;2023-07-24T07:33:11;13.47;;;5.50;;
69594;SDS011;56800;52.142;5.364;2023-07-24T07:35:38;9.50;;;5.28;;
69594;SDS011;56800;52.142;5.364;2023-07-24T07:38:04;14.13;;;5.82;;
69594;SDS011;56800;52.142;5.364;2023-07-24T07:40:31;11.32;;;5.30;;
69594;SDS011;56800;52.142;5.364;2023-07-24T07:42:58;10.60;;;5.10;;
69594;SDS011;56800;52.142;5.364;2023-07-24T07:45:25;11.37;;;5.60;;
69594;SDS011;56800;52.142;5.364;2023-07-24T07:47:52;10.32;;;5.25;;
69594;SDS011;56800;52.142;5.364;2023-07-24T07:50:19;11.70;;;5.90;;
69594;SDS011;56800;52.142;5.364;2023-07-24T07:52:49;14.45;;;5.63;;
69594;SDS011;56800;52.142;5.364;2023-07-24T07:55:17;19.40;;;5.88;;
69594;SDS011;56800;52.142;5.364;2023-07-24T07:57:45;13.57;;;5.20;;
69594;SDS011;56800;52.142;5.364;2023-07-24T08:00:11;11.07;;;5.25;;
69594;SDS011;56800;52.142;5.364;2023-07-24T08:02:39;9.82;;;4.90;;
69594;SDS011;56800;52.142;5.364;2023-07-24T08:05:10;11.43;;;5.43;;
69594;SDS011;56800;52.142;5.364;2023-07-24T08:07:46;9.98;;;5.72;;
69594;SDS011;56800;52.142;5.364;2023-07-24T08:10:12;10.83;;;5.37;;
69594;SDS011;56800;52.142;5.364;2023-07-24T08:12:42;11.95;;;5.78;;
69594;SDS011;56800;52.142;5.364;2023-07-24T08:15:10;9.75;;;5.22;;
69594;SDS011;56800;52.142;5.364;2023-07-24T08:17:37;29.20;;;17.33;;
69594;SDS011;56800;52.142;5.364;2023-07-24T08:20:04;9.27;;;5.57;;
69594;SDS011;56800;52.142;5.364;2023-07-24T08:22:31;9.50;;;5.70;;
69594;SDS011;56800;52.142;5.364;2023-07-24T08:24:58;10.38;;;4.90;;
69594;SDS011;56800;52.142;5.364;2023-07-24T08:27:25;12.02;;;5.38;;
69594;SDS011;56800;52.142;5.364;2023-07-24T08:29:52;11.30;;;4.97;;
69594;SDS011;56800;52.142;5.364;2023-07-24T08:32:19;10.45;;;5.78;;
69594;SDS011;56800;52.142;5.364;2023-07-24T08:34:46;10.40;;;5.70;;
69594;SDS011;56800;52.142;5.364;2023-07-24T08:37:12;13.20;;;5.30;;
69594;SDS011;56800;52.142;5.364;2023-07-24T08:39:39;11.27;;;5.47;;
69594;SDS011;56800;52.142;5.364;2023-07-24T08:42:10;8.88;;;5.22;;
69594;SDS011;56800;52.142;5.364;2023-07-24T08:44:38;12.50;;;5.88;;
69594;SDS011;56800;52.142;5.364;2023-07-24T08:47:06;8.93;;;5.80;;
69594;SDS011;56800;52.142;5.364;2023-07-24T08:49:37;12.15;;;5.72;;
69594;SDS011;56800;52.142;5.364;2023-07-24T08:52:06;11.63;;;5.85;;
69594;SDS011;56800;52.142;5.364;2023-07-24T08:54:37;10.07;;;4.90;;
69594;SDS011;56800;52.142;5.364;2023-07-24T08:57:08;9.60;;;5.60;;
69594;SDS011;56800;52.142;5.364;2023-07-24T08:59:35;8.43;;;4.77;;
69594;SDS011;56800;52.142;5.364;2023-07-24T09:02:02;12.32;;;5.25;;
69594;SDS011;56800;52.142;5.364;2023-07-24T09:04:29;9.20;;;4.80;;
69594;SDS011;56800;52.142;5.364;2023-07-24T09:06:56;9.32;;;5.63;;
69594;SDS011;56800;52.142;5.364;2023-07-24T09:09:28;14.70;;;5.82;;
69594;SDS011;56800;52.142;5.364;2023-07-24T09:11:56;17.40;;;5.53;;
69594;SDS011;56800;52.142;5.364;2023-07-24T09:14:25;9.52;;;6.03;;
69594;SDS011;56800;52.142;5.364;2023-07-24T09:19:37;11.43;;;6.22;;
69594;SDS011;56800;52.142;5.364;2023-07-24T09:24:49;11.63;;;5.60;;
69594;SDS011;56800;52.142;5.364;2023-07-24T09:27:17;9.52;;;5.00;;
69594;SDS011;56800;52.142;5.364;2023-07-24T09:29:45;8.27;;;5.13;;
69594;SDS011;56800;52.142;5.364;2023-07-24T09:32:19;8.75;;;5.40;;
69594;SDS011;56800;52.142;5.364;2023-07-24T09:34:52;9.40;;;5.20;;
69594;SDS011;56800;52.142;5.364;2023-07-24T09:37:23;10.03;;;5.77;;
69594;SDS011;56800;52.142;5.364;2023-07-24T09:39:54;10.50;;;5.35;;
69594;SDS011;56800;52.142;5.364;2023-07-24T09:42:28;11.65;;;5.97;;
69594;SDS011;56800;52.142;5.364;2023-07-24T09:44:58;12.02;;;5.60;;
69594;SDS011;56800;52.142;5.364;2023-07-24T09:47:25;12.23;;;6.15;;
69594;SDS011;56800;52.142;5.364;2023-07-24T09:50:12;9.57;;;5.83;;
69594;SDS011;56800;52.142;5.364;2023-07-24T09:52:40;20.33;;;7.35;;
69594;SDS011;56800;52.142;5.364;2023-07-24T09:55:10;11.27;;;6.00;;
69594;SDS011;56800;52.142;5.364;2023-07-24T09:57:40;14.30;;;7.72;;
69594;SDS011;56800;52.142;5.364;2023-07-24T10:00:10;8.90;;;6.00;;
69594;SDS011;56800;52.142;5.364;2023-07-24T10:02:38;22.03;;;7.03;;
69594;SDS011;56800;52.142;5.364;2023-07-24T10:05:06;12.20;;;6.00;;
69594;SDS011;56800;52.142;5.364;2023-07-24T10:07:33;14.25;;;5.68;;
69594;SDS011;56800;52.142;5.364;2023-07-24T10:10:01;12.35;;;5.65;;
69594;SDS011;56800;52.142;5.364;2023-07-24T10:12:27;13.40;;;6.00;;
69594;SDS011;56800;52.142;5.364;2023-07-24T10:14:56;10.27;;;5.50;;
69594;SDS011;56800;52.142;5.364;2023-07-24T10:17:26;11.25;;;5.90;;
69594;SDS011;56800;52.142;5.364;2023-07-24T10:20:03;10.88;;;5.25;;
69594;SDS011;56800;52.142;5.364;2023-07-24T10:22:30;12.05;;;5.40;;
69594;SDS011;56800;52.142;5.364;2023-07-24T10:24:57;13.07;;;5.90;;
69594;SDS011;56800;52.142;5.364;2023-07-24T10:27:24;13.77;;;5.30;;
69594;SDS011;56800;52.142;5.364;2023-07-24T10:29:58;16.80;;;5.32;;
69594;SDS011;56800;52.142;5.364;2023-07-24T10:32:47;10.43;;;5.10;;
69594;SDS011;56800;52.142;5.364;2023-07-24T10:35:20;8.65;;;5.10;;
69594;SDS011;56800;52.142;5.364;2023-07-24T10:37:49;10.30;;;4.93;;
69594;SDS011;56800;52.142;5.364;2023-07-24T10:40:26;8.10;;;4.90;;
69594;SDS011;56800;52.142;5.364;2023-07-24T10:43:05;9.52;;;4.80;;
69594;SDS011;56800;52.142;5.364;2023-07-24T10:48:16;11.55;;;5.30;;
69594;SDS011;56800;52.142;5.364;2023-07-24T10:50:44;9.35;;;5.50;;
69594;SDS011;56800;52.142;5.364;2023-07-24T10:53:16;13.67;;;5.60;;
69594;SDS011;56800;52.142;5.364;2023-07-24T10:55:44;14.68;;;5.38;;
69594;SDS011;56800;52.142;5.364;2023-07-24T10:58:13;11.73;;;5.85;;
69594;SDS011;56800;52.142;5.364;2023-07-24T11:00:40;11.15;;;5.57;;
69594;SDS011;56800;52.142;5.364;2023-07-24T11:03:11;11.43;;;5.15;;
69594;SDS011;56800;52.142;5.364;2023-07-24T11:05:40;12.37;;;6.03;;
69594;SDS011;56800;52.142;5.364;2023-07-24T11:08:09;9.70;;;6.13;;
69594;SDS011;56800;52.142;5.364;2023-07-24T11:10:36;12.05;;;5.13;;
69594;SDS011;56800;52.142;5.364;2023-07-24T11:13:02;10.18;;;5.07;;
69594;SDS011;56800;52.142;5.364;2023-07-24T11:15:29;10.95;;;5.30;;
69594;SDS011;56800;52.142;5.364;2023-07-24T11:17:56;10.50;;;5.40;;
69594;SDS011;56800;52.142;5.364;2023-07-24T11:20:23;9.73;;;4.63;;
69594;SDS011;56800;52.142;5.364;2023-07-24T11:22:49;8.57;;;4.72;;
69594;SDS011;56800;52.142;5.364;2023-07-24T11:25:16;11.55;;;5.60;;
69594;SDS011;56800;52.142;5.364;2023-07-24T11:27:43;10.93;;;5.50;;
69594;SDS011;56800;52.142;5.364;2023-07-24T11:30:11;11.80;;;5.30;;
69594;SDS011;56800;52.142;5.364;2023-07-24T11:32:39;10.70;;;6.07;;
69594;SDS011;56800;52.142;5.364;2023-07-24T11:35:07;9.98;;;5.32;;
69594;SDS011;56800;52.142;5.364;2023-07-24T11:37:35;12.00;;;5.43;;
69594;SDS011;56800;52.142;5.364;2023-07-24T11:40:03;11.73;;;6.45;;
69594;SDS011;56800;52.142;5.364;2023-07-24T11:42:39;14.27;;;6.37;;
69594;SDS011;56800;52.142;5.364;2023-07-24T11:45:08;13.85;;;5.75;;
69594;SDS011;56800;52.142;5.364;2023-07-24T11:47:42;12.07;;;5.55;;
69594;SDS011;56800;52.142;5.364;2023-07-24T11:50:10;8.63;;;5.03;;
69594;SDS011;56800;52.142;5.364;2023-07-24T11:52:41;12.18;;;5.18;;
69594;SDS011;56800;52.142;5.364;2023-07-24T11:55:12;14.67;;;6.47;;
69594;SDS011;56800;52.142;5.364;2023-07-24T11:57:43;10.70;;;5.85;;
69594;SDS011;56800;52.142;5.364;2023-07-24T12:00:22;10.98;;;5.82;;
69594;SDS011;56800;52.142;5.364;2023-07-24T12:02:49;12.43;;;6.22;;
69594;SDS011;56800;52.142;5.364;2023-07-24T12:05:17;12.43;;;5.53;;
69594;SDS011;56800;52.142;5.364;2023-07-24T12:07:44;9.97;;;5.80;;
69594;SDS011;56800;52.142;5.364;2023-07-24T12:10:12;9.82;;;5.53;;
69594;SDS011;56800;52.142;5.364;2023-07-24T12:12:44;13.18;;;5.05;;
69594;SDS011;56800;52.142;5.364;2023-07-24T12:15:14;9.18;;;4.68;;
69594;SDS011;56800;52.142;5.364;2023-07-24T12:17:41;10.32;;;5.32;;
69594;SDS011;56800;52.142;5.364;2023-07-24T12:20:08;9.53;;;4.93;;
69594;SDS011;56800;52.142;5.364;2023-07-24T12:22:38;13.20;;;4.70;;
69594;SDS011;56800;52.142;5.364;2023-07-24T12:25:05;9.88;;;5.15;;
69594;SDS011;56800;52.142;5.364;2023-07-24T12:27:32;10.27;;;5.22;;
69594;SDS011;56800;52.142;5.364;2023-07-24T12:29:59;13.30;;;4.65;;
69594;SDS011;56800;52.142;5.364;2023-07-24T12:32:26;10.87;;;5.23;;
69594;SDS011;56800;52.142;5.364;2023-07-24T12:34:53;14.52;;;4.85;;
69594;SDS011;56800;52.142;5.364;2023-07-24T12:37:20;11.50;;;5.10;;
69594;SDS011;56800;52.142;5.364;2023-07-24T12:39:47;9.20;;;5.20;;
69594;SDS011;56800;52.142;5.364;2023-07-24T12:42:14;8.98;;;5.13;;
69594;SDS011;56800;52.142;5.364;2023-07-24T12:44:42;11.97;;;6.00;;
69594;SDS011;56800;52.142;5.364;2023-07-24T12:47:10;23.75;;;7.10;;
69594;SDS011;56800;52.142;5.364;2023-07-24T12:49:38;19.23;;;6.07;;
69594;SDS011;56800;52.142;5.364;2023-07-24T12:52:05;20.52;;;7.88;;
69594;SDS011;56800;52.142;5.364;2023-07-24T12:54:32;11.35;;;4.20;;
69594;SDS011;56800;52.142;5.364;2023-07-24T12:57:20;7.17;;;3.43;;
69594;SDS011;56800;52.142;5.364;2023-07-24T12:59:46;7.60;;;4.07;;
69594;SDS011;56800;52.142;5.364;2023-07-24T13:02:13;7.88;;;4.50;;
69594;SDS011;56800;52.142;5.364;2023-07-24T13:04:40;8.90;;;4.90;;
69594;SDS011;56800;52.142;5.364;2023-07-24T13:07:08;8.65;;;5.07;;
69594;SDS011;56800;52.142;5.364;2023-07-24T13:09:35;11.23;;;5.90;;
69594;SDS011;56800;52.142;5.364;2023-07-24T13:12:02;10.75;;;6.25;;
69594;SDS011;56800;52.142;5.364;2023-07-24T13:14:29;28.88;;;19.92;;
69594;SDS011;56800;52.142;5.364;2023-07-24T13:16:55;37.85;;;24.45;;
69594;SDS011;56800;52.142;5.364;2023-07-24T13:19:22;17.92;;;10.45;;
69594;SDS011;56800;52.142;5.364;2023-07-24T13:21:49;14.87;;;7.93;;
69594;SDS011;56800;52.142;5.364;2023-07-24T13:24:16;12.65;;;7.90;;
69594;SDS011;56800;52.142;5.364;2023-07-24T13:26:42;12.07;;;8.85;;
69594;SDS011;56800;52.142;5.364;2023-07-24T13:29:10;16.20;;;8.10;;
69594;SDS011;56800;52.142;5.364;2023-07-24T13:31:36;16.88;;;9.35;;
69594;SDS011;56800;52.142;5.364;2023-07-24T13:34:03;10.70;;;8.43;;
69594;SDS011;56800;52.142;5.364;2023-07-24T13:36:30;14.70;;;8.63;;
69594;SDS011;56800;52.142;5.364;2023-07-24T13:38:57;16.13;;;9.38;;
69594;SDS011;56800;52.142;5.364;2023-07-24T13:41:24;13.10;;;8.93;;
69594;SDS011;56800;52.142;5.364;2023-07-24T13:43:51;13.48;;;8.30;;
69594;SDS011;56800;52.142;5.364;2023-07-24T13:46:18;13.90;;;8.47;;
69594;SDS011;56800;52.142;5.364;2023-07-24T13:48:44;12.65;;;8.93;;
69594;SDS011;56800;52.142;5.364;2023-07-24T13:51:11;16.92;;;9.48;;
69594;SDS011;56800;52.142;5.364;2023-07-24T13:53:38;12.68;;;8.75;;
69594;SDS011;56800;52.142;5.364;2023-07-24T13:56:05;12.30;;;8.55;;
69594;SDS011;56800;52.142;5.364;2023-07-24T13:58:32;11.67;;;8.17;;
69594;SDS011;56800;52.142;5.364;2023-07-24T14:00:59;14.50;;;9.48;;
69594;SDS011;56800;52.142;5.364;2023-07-24T14:03:25;13.32;;;8.90;;
69594;SDS011;56800;52.142;5.364;2023-07-24T14:05:55;14.45;;;8.43;;
69594;SDS011;56800;52.142;5.364;2023-07-24T14:08:23;10.35;;;8.32;;
69594;SDS011;56800;52.142;5.364;2023-07-24T14:10:50;12.07;;;8.87;;
69594;SDS011;56800;52.142;5.364;2023-07-24T14:13:17;11.68;;;6.32;;
69594;SDS011;56800;52.142;5.364;2023-07-24T14:15:43;7.60;;;4.38;;
69594;SDS011;56800;52.142;5.364;2023-07-24T14:18:10;5.90;;;3.60;;
69594;SDS011;56800;52.142;5.364;2023-07-24T14:20:37;6.45;;;3.75;;
69594;SDS011;56800;52.142;5.364;2023-07-24T14:23:06;4.77;;;3.47;;
69594;SDS011;56800;52.142;5.364;2023-07-24T14:25:34;6.93;;;3.42;;
69594;SDS011;56800;52.142;5.364;2023-07-24T14:28:01;4.32;;;3.08;;
69594;SDS011;56800;52.142;5.364;2023-07-24T14:30:27;4.90;;;2.90;;
69594;SDS011;56800;52.142;5.364;2023-07-24T14:32:55;7.90;;;3.50;;
69594;SDS011;56800;52.142;5.364;2023-07-24T14:35:21;9.03;;;3.63;;
69594;SDS011;56800;52.142;5.364;2023-07-24T14:37:48;6.60;;;3.10;;
69594;SDS011;56800;52.142;5.364;2023-07-24T14:40:15;8.85;;;3.20;;
69594;SDS011;56800;52.142;5.364;2023-07-24T14:42:42;7.30;;;2.95;;
69594;SDS011;56800;52.142;5.364;2023-07-24T14:45:08;6.40;;;3.08;;
69594;SDS011;56800;52.142;5.364;2023-07-24T14:47:36;7.93;;;3.07;;
69594;SDS011;56800;52.142;5.364;2023-07-24T14:50:02;6.88;;;3.00;;
69594;SDS011;56800;52.142;5.364;2023-07-24T14:52:29;7.43;;;3.08;;
69594;SDS011;56800;52.142;5.364;2023-07-24T14:54:56;5.93;;;2.90;;
69594;SDS011;56800;52.142;5.364;2023-07-24T14:57:23;8.48;;;3.22;;